Terminal Aerodrome Forecast
Issued by NWS Grand Forks, ND

Home | Current Version | Previous Version | Graphics & Text | Print | Product List | Glossary On
Versions: 1 2 3 4 5 6 7 8 9 10 11 12 13 14 15 16 17 18 19 20
919
FTUS43 KFGF 070318 AAB
TAFFAR
TAF AMD
KFAR 070318Z 0703/0724 29026G37KT 5SM -SN BLSN OVC035
     FM071500 29022G32KT P6SM OVC025
     FM072100 30020G30KT 3SM -SN BLSN OVC025=

USA.gov is the U.S. government's official web portal to all federal, state and local government web resources and services.